Time;durP1;ratioP1;P1;durP2;ratioP2;P2;SDS_P1;SDS_P2;PMS_P1;PMS_P2;Temp;Humidity;BMP_temperature;BMP_pressure;BME280_temperature;BME280_humidity;BME280_pressure;Samples;Min_cycle;Max_cycle;Signal;HPM_P1;HPM_P2
2021/04/02 00:01:16;;;;;;;;;;;16.30;50.60;;;;;;4350361;32;20043;-78
2021/04/02 00:03:49;;;;;;;;;;;16.20;50.50;;;;;;4336636;32;45036;-79
2021/04/02 00:06:25;;;;;;;;;;;16.20;50.70;;;;;;4337078;32;39893;-78
2021/04/02 00:09:00;;;;;;;;;;;16.20;50.90;;;;;;4337560;32;32395;-78
2021/04/02 00:11:36;;;;;;;;;;;16.20;51.00;;;;;;4363999;32;20102;-78
2021/04/02 00:14:11;;;;;;;;;;;16.20;51.00;;;;;;4362570;32;40689;-78
2021/04/02 00:16:44;;;;;;;;;;;16.10;51.10;;;;;;4350207;32;20071;-78
2021/04/02 00:19:19;;;;;;;;;;;16.10;51.00;;;;;;4350234;32;20070;-78
2021/04/02 00:21:51;;;;;;;;;;;16.00;51.20;;;;;;4349334;32;35503;-78
2021/04/02 00:24:23;;;;;;;;;;;16.00;51.30;;;;;;4349514;32;41937;-78
2021/04/02 00:26:52;;;;;;;;;;;16.00;51.30;;;;;;4349601;32;20001;-78
2021/04/02 00:29:22;;;;;;;;;;;16.00;51.50;;;;;;4349199;32;44758;-78
2021/04/02 00:31:54;;;;;;;;;;;15.90;51.40;;;;;;4359524;32;20443;-77
2021/04/02 00:34:26;;;;;;;;;;;15.90;51.40;;;;;;4349706;32;20008;-78
2021/04/02 00:37:02;;;;;;;;;;;15.90;51.50;;;;;;4360723;32;19997;-77
2021/04/02 00:39:37;;;;;;;;;;;15.80;51.50;;;;;;4349944;32;20009;-77
2021/04/02 00:42:09;;;;;;;;;;;15.80;51.50;;;;;;4348760;32;44626;-78
2021/04/02 00:44:41;;;;;;;;;;;15.80;51.50;;;;;;4349103;32;30885;-77
2021/04/02 00:47:20;;;;;;;;;;;15.70;51.60;;;;;;4335953;32;43928;-78
2021/04/02 00:49:52;;;;;;;;;;;15.70;51.70;;;;;;4362944;32;20008;-77
2021/04/02 00:52:29;;;;;;;;;;;15.70;51.90;;;;;;4362249;32;36250;-77
2021/04/02 00:55:04;;;;;;;;;;;15.60;51.90;;;;;;4348617;32;42875;-77
2021/04/02 00:57:40;;;;;;;;;;;15.60;52.10;;;;;;4350019;32;20017;-77
2021/04/02 01:00:15;;;;;;;;;;;15.60;52.10;;;;;;4349481;32;20009;-78
2021/04/02 01:02:45;;;;;;;;;;;15.60;52.20;;;;;;4361420;32;34454;-78
2021/04/02 01:05:20;;;;;;;;;;;15.50;52.10;;;;;;4362001;32;38187;-78
2021/04/02 01:08:02;;;;;;;;;;;15.50;52.10;;;;;;4337453;32;20068;-78
2021/04/02 01:10:43;;;;;;;;;;;15.50;52.10;;;;;;4349336;32;20012;-78
2021/04/02 01:13:17;;;;;;;;;;;15.50;52.20;;;;;;4337337;32;20020;-78
2021/04/02 01:15:53;;;;;;;;;;;15.40;52.20;;;;;;4348312;32;44565;-77
2021/04/02 01:18:28;;;;;;;;;;;15.40;52.10;;;;;;4348012;32;43668;-78
2021/04/02 01:21:04;;;;;;;;;;;15.30;52.20;;;;;;4361822;32;38793;-77
2021/04/02 01:23:55;;;;;;;;;;;15.30;52.20;;;;;;4349789;32;20015;-77
2021/04/02 01:26:35;;;;;;;;;;;15.20;52.20;;;;;;4362734;32;20025;-77
2021/04/02 01:29:17;;;;;;;;;;;15.20;52.30;;;;;;4336657;32;19997;-77
2021/04/02 01:31:50;;;;;;;;;;;15.20;52.20;;;;;;4347931;32;41181;-77
2021/04/02 01:34:22;;;;;;;;;;;15.10;52.60;;;;;;4362402;32;20031;-77
2021/04/02 01:37:09;;;;;;;;;;;15.10;52.70;;;;;;4336786;32;20068;-77
2021/04/02 01:39:39;;;;;;;;;;;15.00;52.80;;;;;;4347955;32;36212;-77
2021/04/02 01:42:11;;;;;;;;;;;15.00;52.90;;;;;;4335221;32;45792;-77
2021/04/02 01:44:47;;;;;;;;;;;15.00;52.90;;;;;;4335966;32;36265;-77
2021/04/02 01:47:24;;;;;;;;;;;15.00;52.90;;;;;;4349071;32;20013;-77
2021/04/02 01:49:57;;;;;;;;;;;14.90;52.90;;;;;;4335517;32;44363;-77
2021/04/02 01:52:31;;;;;;;;;;;14.90;52.80;;;;;;4336857;32;20056;-77
2021/04/02 01:55:07;;;;;;;;;;;14.90;53.00;;;;;;4349106;32;20013;-78
2021/04/02 01:57:40;;;;;;;;;;;14.80;53.10;;;;;;4348479;33;20044;-77
2021/04/02 02:00:11;;;;;;;;;;;14.80;53.20;;;;;;4348512;32;35203;-78
2021/04/02 02:02:49;;;;;;;;;;;14.80;53.30;;;;;;4362106;32;20087;-78
2021/04/02 02:05:22;;;;;;;;;;;14.70;53.30;;;;;;4348765;32;20056;-77
2021/04/02 02:07:59;;;;;;;;;;;14.70;53.40;;;;;;4347365;32;33929;-77
2021/04/02 02:10:32;;;;;;;;;;;14.70;53.50;;;;;;4347510;32;43437;-78
2021/04/02 02:13:06;;;;;;;;;;;14.70;53.70;;;;;;4348767;32;20008;-77
2021/04/02 02:15:42;;;;;;;;;;;14.60;53.80;;;;;;4335620;32;31156;-77
2021/04/02 02:18:15;;;;;;;;;;;14.60;53.80;;;;;;4336230;32;20001;-77
2021/04/02 02:20:50;;;;;;;;;;;14.60;54.00;;;;;;4348544;32;20044;-77
2021/04/02 02:23:20;;;;;;;;;;;14.60;53.90;;;;;;4348813;32;20019;-77
2021/04/02 02:25:57;;;;;;;;;;;14.50;54.10;;;;;;4361554;32;20029;-77
2021/04/02 02:28:30;;;;;;;;;;;14.50;54.10;;;;;;4334950;32;36824;-77
2021/04/02 02:31:02;;;;;;;;;;;14.50;54.00;;;;;;4361889;32;20413;-77
2021/04/02 02:33:41;;;;;;;;;;;14.40;54.00;;;;;;4336271;32;20062;-77
2021/04/02 02:36:14;;;;;;;;;;;14.40;54.20;;;;;;4335864;32;20047;-77
2021/04/02 02:38:55;;;;;;;;;;;14.40;54.30;;;;;;4361646;32;20410;-77
2021/04/02 02:41:27;;;;;;;;;;;14.30;54.30;;;;;;4336099;32;20393;-77
2021/04/02 02:44:03;;;;;;;;;;;14.30;54.50;;;;;;4361636;32;20045;-77
2021/04/02 02:46:39;;;;;;;;;;;14.30;54.70;;;;;;4347938;32;26117;-77
2021/04/02 02:49:15;;;;;;;;;;;14.20;54.90;;;;;;4348508;32;20068;-78
2021/04/02 02:51:46;;;;;;;;;;;14.30;54.90;;;;;;4360424;32;41774;-77
2021/04/02 02:54:23;;;;;;;;;;;14.20;54.80;;;;;;4361606;32;20057;-77
2021/04/02 02:56:58;;;;;;;;;;;14.20;55.00;;;;;;4347206;32;29203;-77
2021/04/02 02:59:31;;;;;;;;;;;14.20;55.00;;;;;;4347184;32;34644;-77
2021/04/02 03:02:04;;;;;;;;;;;14.20;55.10;;;;;;4347707;32;20013;-77
2021/04/02 03:04:40;;;;;;;;;;;14.20;55.10;;;;;;4347819;33;20103;-77
2021/04/02 03:07:15;;;;;;;;;;;14.20;55.20;;;;;;4347637;33;20664;-77
2021/04/02 03:09:51;;;;;;;;;;;14.20;55.20;;;;;;4336578;32;44994;-77
2021/04/02 03:12:23;;;;;;;;;;;14.10;55.10;;;;;;4353230;32;20048;-77
2021/04/02 03:14:59;;;;;;;;;;;14.10;55.10;;;;;;4352869;32;20012;-77
2021/04/02 03:17:36;;;;;;;;;;;14.10;55.30;;;;;;4353096;32;20060;-77
2021/04/02 03:20:15;;;;;;;;;;;14.10;55.30;;;;;;4352915;32;20012;-77
2021/04/02 03:22:50;;;;;;;;;;;14.10;55.40;;;;;;4365172;32;40143;-77
2021/04/02 03:25:26;;;;;;;;;;;14.10;55.50;;;;;;4351932;32;39923;-77
2021/04/02 03:27:56;;;;;;;;;;;14.10;55.50;;;;;;4366187;32;20387;-77
2021/04/02 03:30:31;;;;;;;;;;;14.00;55.50;;;;;;4352166;32;20001;-77
2021/04/02 03:33:21;;;;;;;;;;;14.00;55.50;;;;;;4352946;32;20080;-77
2021/04/02 03:36:00;;;;;;;;;;;14.00;55.50;;;;;;4352682;32;20120;-77
2021/04/02 03:38:36;;;;;;;;;;;14.00;55.70;;;;;;4340265;32;20006;-77
2021/04/02 03:41:15;;;;;;;;;;;13.90;55.60;;;;;;4352914;32;20009;-77
2021/04/02 03:43:52;;;;;;;;;;;13.90;55.60;;;;;;4351661;32;42846;-78
2021/04/02 03:46:20;;;;;;;;;;;13.90;55.60;;;;;;4351729;32;36575;-77
2021/04/02 03:48:58;;;;;;;;;;;13.90;55.70;;;;;;4339705;32;41720;-77
2021/04/02 03:51:32;;;;;;;;;;;13.90;55.80;;;;;;4340342;32;20007;-77
2021/04/02 03:54:09;;;;;;;;;;;13.80;55.50;;;;;;4352701;32;20353;-77
2021/04/02 03:56:45;;;;;;;;;;;13.80;55.50;;;;;;4365889;32;20013;-77
2021/04/02 03:59:17;;;;;;;;;;;13.80;55.60;;;;;;4351292;32;43602;-77
2021/04/02 04:01:46;;;;;;;;;;;13.70;55.70;;;;;;4352776;32;20088;-77
2021/04/02 04:04:23;;;;;;;;;;;13.70;55.70;;;;;;4365792;32;20068;-77
2021/04/02 04:06:56;;;;;;;;;;;13.60;55.80;;;;;;4365621;32;20027;-77
2021/04/02 04:09:30;;;;;;;;;;;13.60;56.00;;;;;;4352621;32;20068;-77
2021/04/02 04:12:04;;;;;;;;;;;13.60;55.80;;;;;;4352845;32;20014;-77
2021/04/02 04:14:35;;;;;;;;;;;13.60;55.90;;;;;;4352629;32;20031;-77
2021/04/02 04:17:14;;;;;;;;;;;13.60;56.00;;;;;;4350987;32;39354;-77
2021/04/02 04:19:49;;;;;;;;;;;13.50;56.10;;;;;;4352951;32;20008;-77
2021/04/02 04:22:25;;;;;;;;;;;13.50;55.90;;;;;;4349760;32;20001;-77
2021/04/02 04:25:03;;;;;;;;;;;13.50;56.00;;;;;;4350056;32;20009;-77
2021/04/02 04:27:37;;;;;;;;;;;13.40;56.00;;;;;;4336906;32;32403;-77
2021/04/02 04:30:14;;;;;;;;;;;13.40;55.90;;;;;;4349411;32;36701;-77
2021/04/02 04:32:46;;;;;;;;;;;13.40;56.00;;;;;;4337627;32;20120;-77
2021/04/02 04:35:18;;;;;;;;;;;13.30;55.90;;;;;;4363305;32;20052;-77
2021/04/02 04:37:54;;;;;;;;;;;13.30;56.30;;;;;;4363636;32;20004;-77
2021/04/02 04:40:30;;;;;;;;;;;13.20;56.40;;;;;;4349713;32;28376;-77
2021/04/02 04:43:03;;;;;;;;;;;13.20;56.50;;;;;;4350055;32;20013;-77
2021/04/02 04:45:44;;;;;;;;;;;13.20;56.50;;;;;;4350082;32;20036;-77
2021/04/02 04:48:37;;;;;;;;;;;13.20;56.50;;;;;;4352049;32;20013;-77
2021/04/02 04:51:14;;;;;;;;;;;13.10;56.60;;;;;;4336369;32;40686;-77
2021/04/02 04:53:47;;;;;;;;;;;13.10;56.60;;;;;;4349871;32;20009;-77
2021/04/02 04:56:26;;;;;;;;;;;13.10;56.60;;;;;;4363359;32;20020;-77
2021/04/02 04:59:02;;;;;;;;;;;13.10;56.80;;;;;;4349939;32;20007;-77
2021/04/02 05:01:34;;;;;;;;;;;13.10;56.90;;;;;;4349591;32;20135;-77
2021/04/02 05:04:16;;;;;;;;;;;13.10;57.10;;;;;;4373866;32;20345;-77
2021/04/02 05:06:50;;;;;;;;;;;13.10;57.20;;;;;;4348302;32;36717;-77
2021/04/02 05:09:27;;;;;;;;;;;13.10;57.10;;;;;;4348465;32;41700;-77
2021/04/02 05:12:03;;;;;;;;;;;13.00;57.10;;;;;;4348922;32;42505;-77
2021/04/02 05:14:38;;;;;;;;;;;13.00;57.10;;;;;;4349433;32;20032;-77
2021/04/02 05:17:16;;;;;;;;;;;13.00;57.10;;;;;;4349707;32;20064;-76
2021/04/02 05:19:49;;;;;;;;;;;13.00;57.20;;;;;;4335886;32;34313;-77
2021/04/02 05:22:27;;;;;;;;;;;13.00;57.30;;;;;;4349040;32;20398;-77
2021/04/02 05:25:00;;;;;;;;;;;13.00;57.20;;;;;;4348241;32;31172;-77
2021/04/02 05:27:32;;;;;;;;;;;13.00;57.30;;;;;;4361765;32;39326;-77
2021/04/02 05:30:06;;;;;;;;;;;13.00;57.50;;;;;;4349498;32;20013;-77
2021/04/02 05:32:41;;;;;;;;;;;13.00;57.60;;;;;;4348542;32;40054;-77
2021/04/02 05:35:14;;;;;;;;;;;13.00;57.70;;;;;;4362430;32;20085;-78
2021/04/02 05:37:52;;;;;;;;;;;12.90;57.70;;;;;;4349598;32;20369;-77
2021/04/02 05:40:27;;;;;;;;;;;12.90;57.70;;;;;;4348941;32;20403;-77
2021/04/02 05:43:00;;;;;;;;;;;12.90;57.70;;;;;;4371136;32;45274;-77
2021/04/02 05:45:34;;;;;;;;;;;12.90;57.80;;;;;;4348682;32;20013;-77
2021/04/02 05:48:06;;;;;;;;;;;12.90;57.90;;;;;;4336688;32;20001;-77
2021/04/02 05:50:44;;;;;;;;;;;12.90;57.90;;;;;;4348598;32;20038;-77
2021/04/02 05:53:19;;;;;;;;;;;12.90;57.90;;;;;;4335385;32;42173;-77
2021/04/02 05:55:53;;;;;;;;;;;12.80;57.90;;;;;;4336756;32;20411;-77
2021/04/02 05:58:29;;;;;;;;;;;12.90;57.90;;;;;;4348814;32;20026;-77
2021/04/02 06:01:02;;;;;;;;;;;12.80;57.90;;;;;;4362007;32;19997;-77
2021/04/02 06:03:40;;;;;;;;;;;12.80;58.10;;;;;;4371230;32;20380;-77
2021/04/02 06:06:13;;;;;;;;;;;12.80;58.10;;;;;;4360940;32;45638;-77
2021/04/02 06:08:49;;;;;;;;;;;12.80;58.20;;;;;;4334929;32;39072;-75
2021/04/02 06:11:21;;;;;;;;;;;12.80;58.10;;;;;;4347771;32;39262;-77
2021/04/02 06:13:53;;;;;;;;;;;12.80;58.10;;;;;;4348787;32;20068;-77
2021/04/02 06:16:28;;;;;;;;;;;12.70;58.10;;;;;;4348807;32;20015;-77
2021/04/02 06:19:07;;;;;;;;;;;12.70;58.30;;;;;;4372903;32;20044;-78
2021/04/02 06:21:45;;;;;;;;;;;12.70;58.30;;;;;;4347503;32;42181;-77
2021/04/02 06:24:23;;;;;;;;;;;12.70;58.40;;;;;;4362316;32;20073;-77
2021/04/02 06:27:07;;;;;;;;;;;12.70;58.90;;;;;;4348482;32;20076;-77
2021/04/02 06:29:44;;;;;;;;;;;12.70;58.40;;;;;;4348579;32;20015;-77
2021/04/02 06:32:31;;;;;;;;;;;12.70;58.40;;;;;;4348775;32;20020;-77
2021/04/02 06:35:10;;;;;;;;;;;12.60;58.50;;;;;;4336361;32;20438;-77
2021/04/02 06:37:43;;;;;;;;;;;12.60;58.60;;;;;;4347449;32;38605;-77
2021/04/02 06:40:19;;;;;;;;;;;12.60;58.70;;;;;;4348400;32;20524;-77
2021/04/02 06:42:51;;;;;;;;;;;12.60;58.70;;;;;;4348523;32;20373;-77
2021/04/02 06:45:23;;;;;;;;;;;12.60;58.80;;;;;;4360645;32;32754;-77
2021/04/02 06:48:09;;;;;;;;;;;12.50;58.80;;;;;;4361636;32;20046;-77
2021/04/02 06:50:47;;;;;;;;;;;12.50;58.90;;;;;;4348314;32;20405;-77
2021/04/02 06:53:20;;;;;;;;;;;12.50;58.80;;;;;;4334348;32;45893;-77
2021/04/02 06:55:59;;;;;;;;;;;12.50;58.80;;;;;;4335776;32;20080;-77
2021/04/02 06:58:32;;;;;;;;;;;12.40;58.70;;;;;;4371917;32;33972;-77
2021/04/02 07:01:05;;;;;;;;;;;12.40;59.00;;;;;;4347978;32;20017;-77
2021/04/02 07:03:35;;;;;;;;;;;12.40;59.20;;;;;;4346492;32;44045;-77
2021/04/02 07:06:16;;;;;;;;;;;12.40;59.30;;;;;;4336243;33;19996;-77
2021/04/02 07:08:52;;;;;;;;;;;12.40;59.30;;;;;;4334825;33;46560;-77
2021/04/02 07:11:24;;;;;;;;;;;12.40;59.40;;;;;;4346970;33;39203;-77
2021/04/02 07:13:59;;;;;;;;;;;12.40;59.40;;;;;;4360221;33;40508;-77
2021/04/02 07:16:38;;;;;;;;;;;12.40;59.40;;;;;;4347367;33;42800;-77
2021/04/02 07:19:18;;;;;;;;;;;12.40;59.40;;;;;;4360167;33;43978;-77
2021/04/02 07:21:53;;;;;;;;;;;12.40;59.60;;;;;;4347035;33;44672;-77
2021/04/02 07:24:23;;;;;;;;;;;12.40;59.60;;;;;;4347846;33;20027;-77
2021/04/02 07:26:54;;;;;;;;;;;12.40;59.70;;;;;;4360822;33;20090;-77
2021/04/02 07:29:30;;;;;;;;;;;12.40;59.80;;;;;;4348095;33;20004;-77
2021/04/02 07:32:03;;;;;;;;;;;12.40;60.00;;;;;;4334860;33;28219;-77
2021/04/02 07:34:35;;;;;;;;;;;12.30;60.90;;;;;;4334304;33;42844;-78
2021/04/02 07:37:08;;;;;;;;;;;12.40;60.20;;;;;;4358411;33;45168;-78
2021/04/02 07:39:47;;;;;;;;;;;12.30;60.20;;;;;;4335480;33;19999;-77
2021/04/02 07:42:21;;;;;;;;;;;12.30;60.30;;;;;;4333861;33;46391;-77
2021/04/02 07:44:56;;;;;;;;;;;12.40;60.50;;;;;;4347921;33;20009;-77
2021/04/02 07:47:29;;;;;;;;;;;12.40;60.60;;;;;;4335208;33;19997;-77
2021/04/02 07:50:07;;;;;;;;;;;12.30;60.30;;;;;;4348255;33;20046;-77
2021/04/02 07:52:43;;;;;;;;;;;12.40;60.70;;;;;;4346887;33;43645;-77
2021/04/02 07:55:21;;;;;;;;;;;12.40;60.90;;;;;;4360892;32;20074;-77
2021/04/02 07:58:06;;;;;;;;;;;12.30;61.10;;;;;;4350151;32;20061;-77
2021/04/02 08:00:36;;;;;;;;;;;12.40;60.90;;;;;;4348893;32;45115;-77
2021/04/02 08:03:21;;;;;;;;;;;12.30;60.50;;;;;;4363359;32;20017;-77
2021/04/02 08:06:08;;;;;;;;;;;12.30;60.50;;;;;;4349249;32;44344;-77
2021/04/02 08:08:44;;;;;;;;;;;12.40;60.70;;;;;;4350137;32;19997;-77
2021/04/02 08:11:25;;;;;;;;;;;12.40;60.70;;;;;;4350615;32;20042;-77
2021/04/02 08:14:09;;;;;;;;;;;12.40;60.60;;;;;;4350726;32;20432;-77
2021/04/02 08:16:48;;;;;;;;;;;12.30;60.50;;;;;;4350260;32;20026;-77
2021/04/02 08:19:27;;;;;;;;;;;12.30;60.70;;;;;;4348885;32;43946;-77
2021/04/02 08:22:07;;;;;;;;;;;12.30;60.90;;;;;;4336365;32;42574;-78
2021/04/02 08:24:40;;;;;;;;;;;12.30;60.90;;;;;;4350295;32;20056;-78
2021/04/02 08:27:19;;;;;;;;;;;12.30;61.00;;;;;;4362700;32;20402;-78
2021/04/02 08:30:02;;;;;;;;;;;12.30;61.10;;;;;;4363459;32;20357;-77
2021/04/02 08:32:40;;;;;;;;;;;12.30;61.10;;;;;;4348957;32;44724;-77
2021/04/02 08:35:12;;;;;;;;;;;12.30;61.30;;;;;;4348940;32;41293;-78
2021/04/02 08:37:59;;;;;;;;;;;12.30;61.50;;;;;;4349356;32;32432;-78
2021/04/02 08:40:29;;;;;;;;;;;12.30;61.50;;;;;;4348783;32;43413;-78
2021/04/02 08:43:07;;;;;;;;;;;12.30;61.70;;;;;;4336277;32;38567;-78
2021/04/02 08:45:42;;;;;;;;;;;12.30;61.70;;;;;;4337615;32;20012;-78
2021/04/02 08:48:21;;;;;;;;;;;12.30;61.70;;;;;;4349802;32;20026;-78
2021/04/02 08:50:56;;;;;;;;;;;12.30;61.60;;;;;;4348827;32;42721;-78
2021/04/02 08:53:40;;;;;;;;;;;12.30;61.80;;;;;;4335848;32;45059;-78
2021/04/02 08:56:16;;;;;;;;;;;12.30;61.80;;;;;;4336122;32;32080;-78
2021/04/02 08:58:53;;;;;;;;;;;12.30;61.80;;;;;;4350382;32;20072;-78
2021/04/02 09:01:26;;;;;;;;;;;12.30;62.00;;;;;;4362901;32;20464;-78
2021/04/02 09:03:56;;;;;;;;;;;12.30;62.10;;;;;;4349750;32;20005;-77
2021/04/02 09:06:31;;;;;;;;;;;12.30;62.00;;;;;;4349665;32;20008;-78
2021/04/02 09:09:15;;;;;;;;;;;12.30;62.00;;;;;;4362970;32;20019;-78
2021/04/02 09:11:49;;;;;;;;;;;12.30;62.90;;;;;;4337226;32;20005;-77
2021/04/02 09:14:24;;;;;;;;;;;12.30;62.20;;;;;;4349299;32;20016;-78
2021/04/02 09:17:04;;;;;;;;;;;12.30;62.20;;;;;;4362639;32;19997;-78
2021/04/02 09:19:40;;;;;;;;;;;12.30;62.20;;;;;;4349023;32;20436;-78
2021/04/02 09:22:13;;;;;;;;;;;12.30;62.40;;;;;;4362908;32;20008;-78
2021/04/02 09:24:45;;;;;;;;;;;12.30;62.40;;;;;;4335460;32;42831;-78
2021/04/02 09:27:16;;;;;;;;;;;12.30;62.50;;;;;;4349404;32;20043;-78
2021/04/02 09:29:59;;;;;;;;;;;12.30;62.70;;;;;;4348983;32;20052;-78
2021/04/02 09:32:32;;;;;;;;;;;12.30;62.70;;;;;;4361791;32;31765;-78
2021/04/02 09:35:05;;;;;;;;;;;12.30;62.80;;;;;;4349360;32;20466;-78
2021/04/02 09:37:35;;;;;;;;;;;12.30;63.00;;;;;;4347641;32;36289;-78
2021/04/02 09:40:08;;;;;;;;;;;12.40;63.00;;;;;;4349096;32;20119;-78
2021/04/02 09:42:43;;;;;;;;;;;12.40;63.00;;;;;;4335597;32;37607;-78
2021/04/02 09:45:16;;;;;;;;;;;12.40;63.10;;;;;;4336260;32;20071;-78
2021/04/02 09:47:49;;;;;;;;;;;12.40;63.10;;;;;;4349188;32;20025;-78
2021/04/02 09:50:17;;;;;;;;;;;12.40;63.10;;;;;;4347745;32;43726;-78
2021/04/02 09:52:52;;;;;;;;;;;12.40;63.10;;;;;;4349207;32;20027;-78
2021/04/02 09:55:27;;;;;;;;;;;12.50;63.10;;;;;;4336801;32;20021;-78
2021/04/02 09:57:58;;;;;;;;;;;12.50;63.10;;;;;;4361204;32;44595;-78
2021/04/02 10:00:36;;;;;;;;;;;12.50;62.90;;;;;;4362343;32;20028;-78
2021/04/02 10:03:15;;;;;;;;;;;12.50;62.90;;;;;;4347703;32;20365;-78
2021/04/02 10:05:47;;;;;;;;;;;12.50;63.00;;;;;;4335154;32;44607;-78
2021/04/02 10:08:19;;;;;;;;;;;12.50;62.90;;;;;;4361577;32;20053;-78
2021/04/02 10:10:52;;;;;;;;;;;12.50;62.70;;;;;;4336267;32;20474;-78
2021/04/02 10:13:28;;;;;;;;;;;12.60;62.80;;;;;;4361029;32;36527;-78
2021/04/02 10:16:03;;;;;;;;;;;12.60;62.90;;;;;;4336087;32;20018;-78
2021/04/02 10:18:36;;;;;;;;;;;12.60;63.00;;;;;;4347434;33;37071;-78
2021/04/02 10:21:07;;;;;;;;;;;12.60;62.80;;;;;;4348622;32;20034;-78
2021/04/02 10:23:39;;;;;;;;;;;12.60;62.70;;;;;;4372342;32;28977;-78
2021/04/02 10:26:10;;;;;;;;;;;12.60;63.20;;;;;;4334847;32;30097;-78
2021/04/02 10:28:39;;;;;;;;;;;12.60;62.90;;;;;;4347715;32;43552;-78
2021/04/02 10:31:15;;;;;;;;;;;12.60;62.90;;;;;;4361926;32;20072;-78
2021/04/02 10:33:49;;;;;;;;;;;12.60;62.70;;;;;;4347444;32;44488;-78
2021/04/02 10:36:20;;;;;;;;;;;12.60;62.60;;;;;;4360281;32;43557;-78
2021/04/02 10:38:55;;;;;;;;;;;12.60;62.60;;;;;;4347429;32;43990;-78
2021/04/02 10:41:27;;;;;;;;;;;12.50;62.70;;;;;;4334281;32;44590;-79
2021/04/02 10:43:57;;;;;;;;;;;12.60;62.90;;;;;;4347124;32;44478;-78
2021/04/02 10:46:29;;;;;;;;;;;12.60;63.80;;;;;;4347907;32;19993;-77
2021/04/02 10:49:04;;;;;;;;;;;12.50;62.90;;;;;;4360324;32;43312;-78
2021/04/02 10:51:34;;;;;;;;;;;12.60;62.80;;;;;;4346894;32;43664;-77
2021/04/02 10:54:08;;;;;;;;;;;12.60;62.70;;;;;;4361533;32;20008;-78
2021/04/02 10:56:41;;;;;;;;;;;12.60;62.80;;;;;;4360293;32;36628;-78
2021/04/02 10:59:13;;;;;;;;;;;12.60;62.90;;;;;;4360485;32;38383;-78
2021/04/02 11:01:40;;;;;;;;;;;12.60;62.70;;;;;;4346653;32;40671;-78
2021/04/02 11:04:12;;;;;;;;;;;12.60;62.80;;;;;;4347282;32;43692;-78
2021/04/02 11:06:44;;;;;;;;;;;12.60;62.70;;;;;;4346520;32;42199;-78
2021/04/02 11:09:14;;;;;;;;;;;12.60;62.40;;;;;;4346819;33;43558;-78
2021/04/02 11:11:47;;;;;;;;;;;12.60;62.60;;;;;;4347875;33;20001;-78
2021/04/02 11:14:16;;;;;;;;;;;12.60;62.50;;;;;;4360347;33;40587;-78
2021/04/02 11:16:48;;;;;;;;;;;12.60;62.50;;;;;;4347272;33;42921;-78
2021/04/02 11:19:16;;;;;;;;;;;12.70;62.40;;;;;;4334318;33;46577;-78
2021/04/02 11:21:51;;;;;;;;;;;12.60;62.40;;;;;;4347354;33;19993;-77
2021/04/02 11:24:24;;;;;;;;;;;12.70;62.30;;;;;;4347022;33;35397;-78
2021/04/02 11:26:56;;;;;;;;;;;12.70;62.20;;;;;;4347924;33;20023;-78
2021/04/02 11:29:26;;;;;;;;;;;12.70;62.90;;;;;;4334473;33;40084;-77
2021/04/02 11:31:55;;;;;;;;;;;12.70;62.20;;;;;;4350145;32;20068;-77
2021/04/02 11:34:30;;;;;;;;;;;12.70;62.10;;;;;;4363808;32;20054;-77
2021/04/02 11:37:03;;;;;;;;;;;12.70;62.10;;;;;;4349732;32;43326;-78
2021/04/02 11:39:33;;;;;;;;;;;12.70;62.30;;;;;;4349725;32;42723;-77
2021/04/02 11:42:06;;;;;;;;;;;12.80;62.50;;;;;;4349958;32;34973;-78
2021/04/02 11:44:36;;;;;;;;;;;12.80;62.40;;;;;;4363108;32;39937;-78
2021/04/02 11:47:12;;;;;;;;;;;12.80;62.60;;;;;;4362897;32;40743;-78
2021/04/02 11:49:41;;;;;;;;;;;12.80;62.60;;;;;;4363119;32;26645;-78
2021/04/02 11:52:11;;;;;;;;;;;12.80;62.70;;;;;;4350387;32;20009;-78
2021/04/02 11:54:46;;;;;;;;;;;12.90;62.60;;;;;;4364190;32;20072;-77
2021/04/02 11:57:18;;;;;;;;;;;12.90;62.60;;;;;;4350712;32;20004;-78
2021/04/02 11:59:53;;;;;;;;;;;12.90;62.80;;;;;;4364175;32;20009;-77
2021/04/02 12:02:26;;;;;;;;;;;12.90;62.70;;;;;;4362629;32;34901;-77
2021/04/02 12:04:58;;;;;;;;;;;13.00;62.70;;;;;;4350334;32;20012;-78
2021/04/02 12:07:30;;;;;;;;;;;13.00;62.70;;;;;;4350219;32;20009;-78
2021/04/02 12:10:00;;;;;;;;;;;13.00;62.60;;;;;;4349849;32;23987;-78
2021/04/02 12:12:30;;;;;;;;;;;13.00;62.50;;;;;;4348775;32;41958;-78
2021/04/02 12:15:02;;;;;;;;;;;13.00;62.20;;;;;;4363309;32;20064;-78
2021/04/02 12:17:37;;;;;;;;;;;13.10;62.10;;;;;;4350226;32;20005;-78
2021/04/02 12:20:09;;;;;;;;;;;13.10;62.00;;;;;;4336687;32;42770;-78
2021/04/02 12:22:44;;;;;;;;;;;13.10;62.00;;;;;;4350523;32;20013;-78
2021/04/02 12:25:22;;;;;;;;;;;13.10;61.70;;;;;;4344616;32;19997;-78
2021/04/02 12:27:55;;;;;;;;;;;13.10;61.60;;;;;;4349097;32;36868;-78
2021/04/02 12:30:27;;;;;;;;;;;13.10;61.50;;;;;;4373558;32;35993;-78
2021/04/02 12:33:02;;;;;;;;;;;13.10;61.70;;;;;;4349336;32;32327;-78
2021/04/02 12:35:32;;;;;;;;;;;13.10;61.70;;;;;;4349936;32;20012;-78
2021/04/02 12:38:09;;;;;;;;;;;13.10;61.70;;;;;;4362398;32;40274;-78
2021/04/02 12:40:44;;;;;;;;;;;13.10;61.80;;;;;;4349938;32;20020;-78
2021/04/02 12:43:21;;;;;;;;;;;13.10;61.70;;;;;;4348465;32;37753;-79
2021/04/02 12:45:53;;;;;;;;;;;13.10;61.50;;;;;;4349927;32;20014;-78
2021/04/02 12:48:26;;;;;;;;;;;13.10;61.50;;;;;;4363374;32;20117;-78
2021/04/02 12:50:58;;;;;;;;;;;13.10;61.20;;;;;;4349830;32;20011;-78
2021/04/02 12:53:31;;;;;;;;;;;13.10;61.30;;;;;;4349655;32;20022;-78
2021/04/02 12:56:06;;;;;;;;;;;13.10;61.40;;;;;;4349544;32;19994;-78
2021/04/02 12:58:38;;;;;;;;;;;13.10;61.50;;;;;;4361308;32;42667;-79
2021/04/02 13:01:14;;;;;;;;;;;13.10;61.30;;;;;;4347937;32;43463;-78
2021/04/02 13:03:47;;;;;;;;;;;13.10;61.30;;;;;;4361633;32;45019;-78
2021/04/02 13:06:20;;;;;;;;;;;13.10;61.00;;;;;;4348872;32;31271;-78
2021/04/02 13:08:53;;;;;;;;;;;13.10;61.00;;;;;;4349514;32;20013;-79
2021/04/02 13:11:24;;;;;;;;;;;13.20;60.90;;;;;;4349946;32;20073;-79
2021/04/02 13:13:56;;;;;;;;;;;13.20;60.70;;;;;;4349601;32;20353;-78
2021/04/02 13:16:28;;;;;;;;;;;13.20;60.30;;;;;;4374207;32;20040;-79
2021/04/02 13:19:00;;;;;;;;;;;13.20;60.50;;;;;;4362013;32;35323;-79
2021/04/02 13:21:33;;;;;;;;;;;13.20;60.50;;;;;;4362731;32;20019;-79
2021/04/02 13:24:07;;;;;;;;;;;13.20;60.30;;;;;;4349220;32;20461;-78
2021/04/02 13:26:36;;;;;;;;;;;13.20;60.50;;;;;;4348836;32;20005;-78
2021/04/02 13:29:08;;;;;;;;;;;13.30;60.50;;;;;;4349391;32;20053;-78
2021/04/02 13:31:41;;;;;;;;;;;13.30;60.40;;;;;;4361522;32;43441;-79
2021/04/02 13:34:10;;;;;;;;;;;13.30;60.40;;;;;;4362478;32;20072;-79
2021/04/02 13:36:48;;;;;;;;;;;13.40;60.20;;;;;;4349661;32;20009;-78
2021/04/02 13:39:20;;;;;;;;;;;13.40;60.00;;;;;;4360984;32;20040;-79
2021/04/02 13:41:52;;;;;;;;;;;13.40;59.60;;;;;;4347983;32;38281;-78
2021/04/02 13:44:25;;;;;;;;;;;13.50;59.70;;;;;;4362562;32;20060;-78
2021/04/02 13:46:56;;;;;;;;;;;13.50;59.60;;;;;;4335787;32;42165;-78
2021/04/02 13:49:29;;;;;;;;;;;13.50;59.80;;;;;;4361846;32;20386;-78
2021/04/02 13:51:58;;;;;;;;;;;13.60;59.70;;;;;;4362179;32;20031;-78
2021/04/02 13:54:33;;;;;;;;;;;13.60;59.70;;;;;;4362297;32;20080;-78
2021/04/02 13:57:05;;;;;;;;;;;13.60;59.50;;;;;;4349047;32;20057;-79
2021/04/02 13:59:41;;;;;;;;;;;13.70;59.30;;;;;;4349430;32;20065;-78
2021/04/02 14:02:13;;;;;;;;;;;13.70;59.30;;;;;;4348887;32;20418;-78
2021/04/02 14:04:48;;;;;;;;;;;13.70;59.20;;;;;;4360953;32;26012;-78
2021/04/02 14:07:18;;;;;;;;;;;13.70;59.10;;;;;;4347349;32;43627;-78
2021/04/02 14:09:50;;;;;;;;;;;13.80;58.90;;;;;;4335861;32;19997;-78
2021/04/02 14:12:28;;;;;;;;;;;13.80;58.60;;;;;;4348786;32;20394;-78
2021/04/02 14:15:00;;;;;;;;;;;13.80;58.40;;;;;;4361057;32;40788;-78
2021/04/02 14:17:27;;;;;;;;;;;13.80;58.40;;;;;;4348728;32;20012;-78
2021/04/02 14:20:00;;;;;;;;;;;13.80;58.40;;;;;;4361912;32;20060;-78
2021/04/02 14:22:29;;;;;;;;;;;13.80;58.40;;;;;;4360824;32;37944;-78
2021/04/02 14:25:02;;;;;;;;;;;13.80;58.30;;;;;;4347633;32;20001;-78
2021/04/02 14:27:40;;;;;;;;;;;13.90;58.20;;;;;;4336441;32;20003;-78
2021/04/02 14:30:20;;;;;;;;;;;13.80;58.00;;;;;;4361727;32;20060;-78
2021/04/02 14:32:52;;;;;;;;;;;13.90;57.90;;;;;;4348341;32;20019;-78
2021/04/02 14:35:30;;;;;;;;;;;13.90;57.70;;;;;;4348103;32;20055;-78
2021/04/02 14:38:03;;;;;;;;;;;13.90;57.80;;;;;;4348349;32;20019;-78
2021/04/02 14:40:35;;;;;;;;;;;13.90;57.90;;;;;;4348501;32;20068;-78
2021/04/02 14:43:10;;;;;;;;;;;13.90;57.70;;;;;;4347168;32;38019;-78
2021/04/02 14:45:46;;;;;;;;;;;14.00;57.60;;;;;;4346847;32;46446;-78
2021/04/02 14:48:13;;;;;;;;;;;14.00;57.70;;;;;;4346984;32;39414;-78
2021/04/02 14:50:45;;;;;;;;;;;14.00;57.60;;;;;;4361601;32;20009;-79
2021/04/02 14:53:15;;;;;;;;;;;14.00;57.50;;;;;;4347206;32;40233;-78
2021/04/02 14:55:44;;;;;;;;;;;14.00;57.50;;;;;;4371522;32;43269;-78
2021/04/02 14:58:39;;;;;;;;;;;14.10;57.70;;;;;;4358175;32;20343;-78